createdAt,value
2023-02-02T00:01:25.312Z,100735.25
2023-02-02T00:03:53.687Z,100733.47
2023-02-02T00:06:22.996Z,100741.81
2023-02-02T00:08:51.012Z,100743.69
2023-02-02T00:11:20.171Z,100733.47
2023-02-02T00:13:48.148Z,100730.66
2023-02-02T00:16:36.219Z,100745.56
2023-02-02T00:19:05.959Z,100743.06
2023-02-02T00:21:33.773Z,100738.94
2023-02-02T00:24:01.589Z,100739.81
2023-02-02T00:26:29.367Z,100743.56
2023-02-02T00:28:57.030Z,100734.56
2023-02-02T00:31:26.108Z,100757.34
2023-02-02T00:33:53.785Z,100751.09
2023-02-02T00:36:22.342Z,100749.50
2023-02-02T00:38:51.209Z,100743.53
2023-02-02T00:41:18.853Z,100743.34
2023-02-02T00:43:48.068Z,100725.78
2023-02-02T00:46:18.708Z,100728.50
2023-02-02T00:48:48.229Z,100738.44
2023-02-02T00:51:15.809Z,100742.88
2023-02-02T00:53:43.483Z,100741.63
2023-02-02T00:56:11.875Z,100737.94
2023-02-02T00:58:39.439Z,100746.41
2023-02-02T01:01:16.627Z,100742.31
2023-02-02T01:03:44.315Z,100727.16
2023-02-02T01:06:13.241Z,100726.97
2023-02-02T01:08:40.956Z,100736.56
2023-02-02T01:11:08.905Z,100762.78
2023-02-02T01:13:37.168Z,100745.78
2023-02-02T01:16:06.271Z,100733.16
2023-02-02T01:18:33.966Z,100736.69
2023-02-02T01:21:03.263Z,100744.44
2023-02-02T01:23:33.131Z,100755.34
2023-02-02T01:26:02.905Z,100750.59
2023-02-02T01:28:30.902Z,100747.56
2023-02-02T01:30:59.350Z,100755.84
2023-02-02T01:33:27.513Z,100761.16
2023-02-02T01:35:57.233Z,100764.84
2023-02-02T01:38:25.673Z,100755.16
2023-02-02T01:40:56.064Z,100755.84
2023-02-02T01:43:25.935Z,100760.09
2023-02-02T01:45:54.614Z,100765.75
2023-02-02T01:48:25.357Z,100752.97
2023-02-02T01:50:57.296Z,100752.16
2023-02-02T01:53:25.112Z,100749.00
2023-02-02T01:55:54.180Z,100732.44
2023-02-02T01:58:24.743Z,100743.00
2023-02-02T02:00:53.276Z,100752.75
2023-02-02T02:03:23.941Z,100743.97
2023-02-02T02:05:56.996Z,100723.69
2023-02-02T02:08:29.015Z,100741.50
2023-02-02T02:10:59.232Z,100739.19
2023-02-02T02:13:43.314Z,100730.00
2023-02-02T02:16:19.713Z,100726.41
2023-02-02T02:18:56.541Z,100717.81
2023-02-02T02:22:02.408Z,100724.34
2023-02-02T02:25:26.448Z,100734.56
2023-02-02T02:28:24.047Z,100726.28
2023-02-02T02:31:20.480Z,100725.41
2023-02-02T02:33:58.493Z,100733.00
2023-02-02T02:36:34.200Z,100732.34
2023-02-02T02:39:09.954Z,100749.47
2023-02-02T02:41:42.978Z,100736.75
2023-02-02T02:44:13.741Z,100736.69
2023-02-02T02:46:41.813Z,100753.44
2023-02-02T02:49:12.841Z,100736.19
2023-02-02T02:51:46.127Z,100737.06
2023-02-02T02:54:21.928Z,100761.91
2023-02-02T02:56:59.131Z,100747.28
2023-02-02T02:59:38.221Z,100733.78
2023-02-02T03:02:19.855Z,100736.81
2023-02-02T03:04:56.799Z,100742.09
2023-02-02T03:07:30.166Z,100761.75
2023-02-02T03:09:59.341Z,100712.53
2023-02-02T03:12:27.073Z,100749.66
2023-02-02T03:14:54.645Z,100724.19
2023-02-02T03:17:22.847Z,100735.13
2023-02-02T03:19:51.705Z,100730.19
2023-02-02T03:22:19.227Z,100729.47
2023-02-02T03:24:46.860Z,100736.81
2023-02-02T03:27:14.456Z,100726.09
2023-02-02T03:29:42.008Z,100729.53
2023-02-02T03:32:09.544Z,100745.78
2023-02-02T03:34:37.101Z,100745.69
2023-02-02T03:37:06.054Z,100731.22
2023-02-02T03:39:33.590Z,100743.66
2023-02-02T03:42:01.162Z,100737.75
2023-02-02T03:44:28.758Z,100742.72
2023-02-02T03:46:56.785Z,100760.69
2023-02-02T03:49:24.417Z,100740.78
2023-02-02T03:51:52.035Z,100766.16
2023-02-02T03:54:20.917Z,100755.78
2023-02-02T03:56:48.524Z,100761.16
2023-02-02T03:59:16.123Z,100758.44
2023-02-02T04:01:43.669Z,100731.63
2023-02-02T04:04:11.301Z,100750.84
2023-02-02T04:06:38.864Z,100753.31
2023-02-02T04:09:06.522Z,100750.50
2023-02-02T04:11:35.892Z,100747.31
2023-02-02T04:14:03.432Z,100749.56
2023-02-02T04:16:34.675Z,100753.16
2023-02-02T04:19:02.277Z,100755.88
2023-02-02T04:21:29.866Z,100761.41
2023-02-02T04:23:57.797Z,100761.25
2023-02-02T04:26:26.191Z,100777.72
2023-02-02T04:28:55.099Z,100757.06
2023-02-02T04:31:22.778Z,100772.88
2023-02-02T04:33:50.598Z,100777.09
2023-02-02T04:36:18.163Z,100776.09
2023-02-02T04:38:49.686Z,100781.69
2023-02-02T04:41:18.648Z,100780.00
2023-02-02T04:43:46.954Z,100797.22
2023-02-02T04:46:16.306Z,100766.34
2023-02-02T04:48:44.172Z,100777.72
2023-02-02T04:51:14.397Z,100777.38
2023-02-02T04:53:42.745Z,100786.97
2023-02-02T04:56:13.484Z,100789.97
2023-02-02T04:58:41.241Z,100790.38
2023-02-02T05:01:12.740Z,100793.81
2023-02-02T05:03:44.071Z,100793.06
2023-02-02T05:06:14.742Z,100799.19
2023-02-02T05:08:43.953Z,100798.44
2023-02-02T05:11:16.970Z,100823.13
2023-02-02T05:13:47.201Z,100795.72
2023-02-02T05:16:15.759Z,100799.19
2023-02-02T05:18:49.617Z,100796.91
2023-02-02T05:21:17.151Z,100808.16
2023-02-02T05:23:44.845Z,100796.50
2023-02-02T05:26:16.986Z,100813.91
2023-02-02T05:28:44.578Z,100841.50
2023-02-02T05:31:12.823Z,100827.19
2023-02-02T05:33:40.771Z,100820.16
2023-02-02T05:36:10.425Z,100820.16
2023-02-02T05:38:38.062Z,100825.28
2023-02-02T05:41:05.979Z,100831.41
2023-02-02T05:43:34.195Z,100831.06
2023-02-02T05:46:01.856Z,100828.78
2023-02-02T05:48:29.495Z,100856.28
2023-02-02T05:51:02.252Z,100852.13
2023-02-02T05:53:32.355Z,100836.44
2023-02-02T05:56:00.467Z,100832.13
2023-02-02T05:58:28.882Z,100856.81
2023-02-02T06:00:56.886Z,100841.63
2023-02-02T06:03:24.909Z,100853.09
2023-02-02T06:05:52.611Z,100847.81
2023-02-02T06:08:20.212Z,100843.94
2023-02-02T06:10:49.253Z,100856.03
2023-02-02T06:13:16.900Z,100848.63
2023-02-02T06:15:44.508Z,100863.69
2023-02-02T06:18:12.183Z,100856.78
2023-02-02T06:20:39.775Z,100844.81
2023-02-02T06:23:07.815Z,100849.47
2023-02-02T06:25:35.529Z,100858.19
2023-02-02T06:28:04.776Z,100858.19
2023-02-02T06:30:32.365Z,100843.50
2023-02-02T06:33:01.422Z,100855.75
2023-02-02T06:35:29.038Z,100842.19
2023-02-02T06:37:56.603Z,100842.03
2023-02-02T06:40:24.154Z,100832.66
2023-02-02T06:42:56.876Z,100833.91
2023-02-02T06:45:26.406Z,100855.44
2023-02-02T06:47:55.076Z,100861.56
2023-02-02T06:50:22.649Z,100839.31
2023-02-02T06:52:50.606Z,100854.16
2023-02-02T06:55:18.860Z,100837.13
2023-02-02T06:57:46.775Z,100842.16
2023-02-02T07:00:15.625Z,100838.28
2023-02-02T07:02:47.339Z,100849.91
2023-02-02T07:05:14.922Z,100855.22
2023-02-02T07:07:42.492Z,100831.97
2023-02-02T07:10:10.493Z,100837.41
2023-02-02T07:12:58.040Z,100837.75
2023-02-02T07:15:25.987Z,100857.97
2023-02-02T07:17:56.714Z,100844.47
2023-02-02T07:20:24.265Z,100854.69
2023-02-02T07:22:51.884Z,100844.19
2023-02-02T07:25:19.568Z,100869.06
2023-02-02T07:27:47.757Z,100871.78
2023-02-02T07:30:17.049Z,100851.66
2023-02-02T07:32:48.056Z,100845.69
2023-02-02T07:35:17.511Z,100870.56
2023-02-02T07:37:45.230Z,100853.94
2023-02-02T07:40:13.803Z,100859.25
2023-02-02T07:42:41.425Z,100830.16
2023-02-02T07:45:27.244Z,100830.16
2023-02-02T07:47:59.657Z,100823.63
2023-02-02T07:50:31.451Z,100825.53
2023-02-02T07:53:00.249Z,100837.56
2023-02-02T07:55:28.315Z,100834.53
2023-02-02T07:57:58.798Z,100843.00
2023-02-02T08:00:26.985Z,100839.72
2023-02-02T08:02:54.883Z,100860.63
2023-02-02T08:05:22.841Z,100847.97
2023-02-02T08:07:52.024Z,100851.34
2023-02-02T08:10:19.626Z,100860.94
2023-02-02T08:12:47.164Z,100856.88
2023-02-02T08:15:14.826Z,100878.22
2023-02-02T08:17:46.357Z,100891.09
2023-02-02T08:20:14.705Z,100891.47
2023-02-02T08:22:42.365Z,100889.22
2023-02-02T08:25:11.458Z,100879.97
2023-02-02T08:27:39.012Z,100896.03
2023-02-02T08:30:07.389Z,100917.16
2023-02-02T08:32:34.963Z,100895.34
2023-02-02T08:35:02.558Z,100917.91
2023-02-02T08:37:30.274Z,100914.94
2023-02-02T08:39:57.889Z,100912.84
2023-02-02T08:42:26.985Z,100920.06
2023-02-02T08:46:02.972Z,100933.66
2023-02-02T08:47:42.080Z,100923.44
2023-02-02T08:50:11.120Z,100918.38
2023-02-02T08:52:38.685Z,100932.06
2023-02-02T08:55:07.520Z,100928.63
2023-02-02T08:57:36.434Z,100913.34
2023-02-02T09:00:04.557Z,100913.53
2023-02-02T09:02:32.427Z,100910.50
2023-02-02T09:05:00.173Z,100915.63
2023-02-02T09:07:27.783Z,100917.75
2023-02-02T09:09:58.006Z,100932.44
2023-02-02T09:12:27.446Z,100912.78
2023-02-02T09:14:58.479Z,100935.88
2023-02-02T09:17:30.012Z,100928.94
2023-02-02T09:19:59.184Z,100932.63
2023-02-02T09:22:28.914Z,100916.47
2023-02-02T09:24:58.081Z,100929.88
2023-02-02T09:27:27.243Z,100917.09
2023-02-02T09:29:57.898Z,100927.03
2023-02-02T09:32:27.047Z,100920.34
2023-02-02T09:34:56.307Z,100930.91
2023-02-02T09:37:26.471Z,100931.56
2023-02-02T09:39:55.807Z,100930.13
2023-02-02T09:42:44.406Z,100931.56
2023-02-02T09:45:24.039Z,100952.38
2023-02-02T09:47:58.358Z,100952.38
2023-02-02T09:50:46.805Z,100956.88
2023-02-02T09:53:21.348Z,100958.00
2023-02-02T09:55:51.241Z,100979.41
2023-02-02T09:58:22.989Z,100970.44
2023-02-02T10:00:57.701Z,100947.03
2023-02-02T10:03:31.934Z,100932.78
2023-02-02T10:06:05.642Z,100947.91
2023-02-02T10:08:37.035Z,100941.97
2023-02-02T10:11:16.165Z,100948.00
2023-02-02T10:13:45.656Z,100949.53
2023-02-02T10:16:18.101Z,100957.88
2023-02-02T10:18:51.160Z,100971.50
2023-02-02T10:21:28.518Z,100963.13
2023-02-02T10:23:58.425Z,100959.25
2023-02-02T10:26:36.932Z,100964.75
2023-02-02T10:29:13.601Z,100963.81
2023-02-02T10:31:52.775Z,100965.25
2023-02-02T10:34:26.763Z,100957.00
2023-02-02T10:37:23.599Z,100954.75
2023-02-02T10:40:05.921Z,100966.41
2023-02-02T10:42:45.557Z,100970.13
2023-02-02T10:45:18.679Z,100966.03
2023-02-02T10:47:49.071Z,100965.25
2023-02-02T10:50:19.530Z,100966.81
2023-02-02T10:52:52.883Z,100964.44
2023-02-02T10:55:22.706Z,100976.38
2023-02-02T10:57:59.278Z,100972.75
2023-02-02T11:00:32.974Z,100971.50
2023-02-02T11:03:04.618Z,100974.81
2023-02-02T11:05:50.275Z,100966.19
2023-02-02T11:08:20.989Z,100954.44
2023-02-02T11:10:53.085Z,100958.19
2023-02-02T11:13:28.499Z,100955.69
2023-02-02T11:16:38.836Z,100964.59
2023-02-02T11:19:24.986Z,100966.19
2023-02-02T11:21:56.152Z,100985.25
2023-02-02T11:24:27.865Z,100972.91
2023-02-02T11:26:57.554Z,100978.06
2023-02-02T11:29:30.293Z,100988.31
2023-02-02T11:31:58.531Z,100996.06
2023-02-02T11:34:29.292Z,101009.69
2023-02-02T11:37:15.640Z,100992.94
2023-02-02T11:39:44.247Z,100975.63
2023-02-02T11:42:16.965Z,100978.69
2023-02-02T11:44:48.775Z,100978.69
2023-02-02T11:47:21.771Z,100984.13
2023-02-02T11:49:52.612Z,100970.19
2023-02-02T11:52:23.766Z,100974.19
2023-02-02T11:54:54.065Z,100971.38
2023-02-02T11:57:24.008Z,100963.06
2023-02-02T11:59:53.849Z,100965.00
2023-02-02T12:02:30.997Z,100964.91
2023-02-02T12:07:52.313Z,100964.75
2023-02-02T12:10:24.109Z,100956.25
2023-02-02T12:13:06.294Z,100971.72
2023-02-02T12:15:47.265Z,100953.56
2023-02-02T12:18:38.505Z,100950.34
2023-02-02T12:21:08.900Z,100942.81
2023-02-02T12:23:51.893Z,100948.25
2023-02-02T12:26:25.472Z,100961.72
2023-02-02T12:29:29.182Z,100967.22
2023-02-02T12:32:12.308Z,100963.78
2023-02-02T12:34:53.439Z,100966.34
2023-02-02T12:37:33.822Z,100973.56
2023-02-02T12:40:20.163Z,100965.31
2023-02-02T12:43:06.779Z,100965.53
2023-02-02T12:45:46.464Z,100993.59
2023-02-02T12:48:22.809Z,100979.66
2023-02-02T12:51:01.678Z,100964.59
2023-02-02T12:53:42.968Z,100976.09
2023-02-02T12:56:23.287Z,100983.81
2023-02-02T12:58:58.268Z,100977.56
2023-02-02T13:01:55.065Z,100983.66
2023-02-02T13:04:46.724Z,100966.72
2023-02-02T13:07:39.619Z,100965.63
2023-02-02T13:10:17.127Z,100961.03
2023-02-02T13:12:51.446Z,100965.53
2023-02-02T13:15:23.957Z,100954.97
2023-02-02T13:17:54.972Z,100953.84
2023-02-02T13:20:36.047Z,100951.75
2023-02-02T13:23:08.092Z,100956.41
2023-02-02T13:25:41.626Z,100959.38
2023-02-02T13:28:19.523Z,100989.56
2023-02-02T13:30:51.086Z,100971.78
2023-02-02T13:33:26.339Z,100966.66
2023-02-02T13:35:56.643Z,100985.25
2023-02-02T13:38:25.963Z,101006.41
2023-02-02T13:40:56.300Z,100978.22
2023-02-02T13:43:34.853Z,100968.09
2023-02-02T13:46:10.016Z,100982.84
2023-02-02T13:48:47.897Z,100979.56
2023-02-02T13:51:39.298Z,100982.22
2023-02-02T13:54:27.763Z,100987.16
2023-02-02T13:57:00.426Z,100987.16
2023-02-02T13:59:46.537Z,100989.09
2023-02-02T14:02:23.625Z,100991.03
2023-02-02T14:04:56.863Z,100994.53
2023-02-02T14:07:31.867Z,100992.78
2023-02-02T14:09:59.635Z,100990.53
2023-02-02T14:12:31.526Z,101003.59
2023-02-02T14:15:01.074Z,101001.97
2023-02-02T14:17:54.440Z,101011.38
2023-02-02T14:20:46.445Z,101007.19
2023-02-02T14:23:52.161Z,101015.44
2023-02-02T14:26:40.668Z,101020.66
2023-02-02T14:29:39.348Z,101006.88
2023-02-02T14:32:34.675Z,101015.84
2023-02-02T14:35:40.715Z,101014.75
2023-02-02T14:38:14.526Z,101030.13
2023-02-02T14:40:51.778Z,101020.44
2023-02-02T14:43:47.808Z,101007.69
2023-02-02T14:46:34.289Z,101018.09
2023-02-02T14:49:25.526Z,101013.75
2023-02-02T14:52:01.207Z,101021.63
2023-02-02T14:54:34.200Z,101023.53
2023-02-02T14:57:05.520Z,101028.75
2023-02-02T14:59:37.143Z,101038.75
2023-02-02T15:02:16.376Z,101036.28
2023-02-02T15:04:47.724Z,101053.25
2023-02-02T15:07:38.776Z,101047.56
2023-02-02T15:10:13.246Z,101042.19
2023-02-02T15:12:44.352Z,101030.44
2023-02-02T15:15:22.959Z,101054.00
2023-02-02T15:18:03.610Z,101049.31
2023-02-02T15:20:37.355Z,101056.72
2023-02-02T15:23:10.151Z,101065.44
2023-02-02T15:25:43.786Z,101056.38
2023-02-02T15:28:20.192Z,101069.84
2023-02-02T15:30:56.686Z,101078.97
2023-02-02T15:33:30.555Z,101081.22
2023-02-02T15:36:04.660Z,101078.34
2023-02-02T15:38:36.700Z,101079.97
2023-02-02T15:41:07.043Z,101086.66
2023-02-02T15:43:35.737Z,101085.47
2023-02-02T15:46:06.788Z,101086.59
2023-02-02T15:48:36.293Z,101090.03
2023-02-02T15:51:08.428Z,101110.00
2023-02-02T15:53:48.775Z,101085.09
2023-02-02T15:56:29.216Z,101103.75
2023-02-02T15:58:59.276Z,101115.09
2023-02-02T16:01:30.476Z,101114.72
2023-02-02T16:04:10.003Z,101104.03
2023-02-02T16:06:39.108Z,101121.78
2023-02-02T16:09:08.401Z,101124.34
2023-02-02T16:11:43.101Z,101120.84
2023-02-02T16:14:18.302Z,101138.91
2023-02-02T16:16:49.206Z,101138.72
2023-02-02T16:19:20.841Z,101131.38
2023-02-02T16:21:55.492Z,101149.78
2023-02-02T16:24:27.546Z,101164.03
2023-02-02T16:26:58.775Z,101158.72
2023-02-02T16:29:28.049Z,101164.22
2023-02-02T16:31:56.851Z,101169.50
2023-02-02T16:34:47.177Z,101183.28
2023-02-02T16:37:17.915Z,101189.38
2023-02-02T16:39:45.621Z,101191.75
2023-02-02T16:42:25.746Z,101193.53
2023-02-02T16:44:53.505Z,101213.00
2023-02-02T16:47:34.549Z,101208.56
2023-02-02T16:50:28.560Z,101208.94
2023-02-02T16:53:00.581Z,101221.84
2023-02-02T16:55:43.416Z,101213.59
2023-02-02T16:58:20.407Z,101219.47
2023-02-02T17:01:08.834Z,101240.72
2023-02-02T17:03:46.214Z,101238.81
2023-02-02T17:06:14.728Z,101235.59
2023-02-02T17:08:43.934Z,101249.56
2023-02-02T17:11:23.172Z,101232.09
2023-02-02T17:13:51.843Z,101226.78
2023-02-02T17:16:21.679Z,101236.59
2023-02-02T17:18:49.526Z,101238.44
2023-02-02T17:21:20.652Z,101234.84
2023-02-02T17:23:51.545Z,101241.00
2023-02-02T17:26:19.620Z,101248.28
2023-02-02T17:28:48.206Z,101253.94
2023-02-02T17:31:17.658Z,101262.66
2023-02-02T17:33:45.280Z,101252.84
2023-02-02T17:36:14.053Z,101265.47
2023-02-02T17:38:41.920Z,101259.66
2023-02-02T17:41:14.096Z,101264.94
2023-02-02T17:43:42.720Z,101269.91
2023-02-02T17:46:12.619Z,101268.66
2023-02-02T17:48:40.220Z,101274.84
2023-02-02T17:51:15.093Z,101255.94
2023-02-02T17:53:42.731Z,101267.88
2023-02-02T17:56:11.664Z,101269.19
2023-02-02T17:58:39.265Z,101273.03
2023-02-02T18:01:07.829Z,101283.81
2023-02-02T18:03:38.579Z,101280.72
2023-02-02T18:06:06.626Z,101277.25
2023-02-02T18:08:34.764Z,101297.22
2023-02-02T18:11:02.371Z,101291.50
2023-02-02T18:13:31.502Z,101306.22
2023-02-02T18:15:59.654Z,101288.66
2023-02-02T18:18:29.698Z,101281.59
2023-02-02T18:20:58.839Z,101284.94
2023-02-02T18:23:26.892Z,101296.50
2023-02-02T18:25:54.604Z,101299.06
2023-02-02T18:28:22.199Z,101292.09
2023-02-02T18:30:51.192Z,101292.91
2023-02-02T18:33:19.750Z,101287.78
2023-02-02T18:35:48.917Z,101279.91
2023-02-02T18:38:17.861Z,101275.75
2023-02-02T18:40:45.508Z,101285.63
2023-02-02T18:43:13.108Z,101275.75
2023-02-02T18:45:40.655Z,101274.50
2023-02-02T18:48:09.561Z,101269.56
2023-02-02T18:50:37.147Z,101270.88
2023-02-02T18:53:04.717Z,101266.56
2023-02-02T18:55:32.224Z,101267.63
2023-02-02T18:57:59.978Z,101276.81
2023-02-02T19:00:27.630Z,101278.75
2023-02-02T19:02:55.133Z,101285.75
2023-02-02T19:05:41.415Z,101280.88
2023-02-02T19:08:08.936Z,101293.25
2023-02-02T19:10:36.487Z,101286.19
2023-02-02T19:13:15.366Z,101275.38
2023-02-02T19:15:43.132Z,101285.81
2023-02-02T19:18:14.905Z,101284.94
2023-02-02T19:20:45.818Z,101291.13
2023-02-02T19:23:14.771Z,101289.53
2023-02-02T19:25:46.270Z,101295.34
2023-02-02T19:28:25.201Z,101282.44
2023-02-02T19:30:54.674Z,101275.84
2023-02-02T19:33:25.885Z,101278.22
2023-02-02T19:35:55.301Z,101284.94
2023-02-02T19:38:24.497Z,101280.63
2023-02-02T19:40:52.585Z,101276.28
2023-02-02T19:43:27.497Z,101296.78
2023-02-02T19:45:55.582Z,101270.97
2023-02-02T19:48:26.464Z,101278.31
2023-02-02T19:50:56.072Z,101273.81
2023-02-02T19:53:28.111Z,101296.94
2023-02-02T19:55:55.740Z,101273.81
2023-02-02T19:58:25.070Z,101296.41
2023-02-02T20:00:54.578Z,101297.66
2023-02-02T20:03:24.368Z,101308.78
2023-02-02T20:05:53.355Z,101306.22
2023-02-02T20:08:26.100Z,101315.69
2023-02-02T20:10:55.847Z,101309.59
2023-02-02T20:13:26.014Z,101307.34
2023-02-02T20:16:03.615Z,101296.59
2023-02-02T20:18:41.567Z,101296.94
2023-02-02T20:21:21.197Z,101290.22
2023-02-02T20:23:50.140Z,101295.72
2023-02-02T20:26:23.642Z,101289.19
2023-02-02T20:28:53.329Z,101277.94
2023-02-02T20:31:23.373Z,101283.19
2023-02-02T20:33:53.810Z,101266.41
2023-02-02T20:36:35.514Z,101284.75
2023-02-02T20:39:22.817Z,101279.63
2023-02-02T20:41:50.556Z,101279.81
2023-02-02T20:44:18.171Z,101275.22
2023-02-02T20:46:45.804Z,101277.16
2023-02-02T20:49:13.727Z,101277.94
2023-02-02T20:51:41.411Z,101276.28
2023-02-02T20:54:11.192Z,101295.00
2023-02-02T20:56:38.815Z,101295.19
2023-02-02T20:59:07.381Z,101285.00
2023-02-02T21:01:35.259Z,101286.88
2023-02-02T21:04:05.321Z,101286.16
2023-02-02T21:06:32.907Z,101293.94
2023-02-02T21:09:00.619Z,101297.50
2023-02-02T21:11:29.670Z,101299.44
2023-02-02T21:13:57.457Z,101302.78
2023-02-02T21:16:25.075Z,101300.22
2023-02-02T21:18:52.944Z,101309.50
2023-02-02T21:21:22.460Z,101306.47
2023-02-02T21:23:51.518Z,101309.84
2023-02-02T21:26:21.908Z,101306.88
2023-02-02T21:28:50.949Z,101296.44
2023-02-02T21:31:18.848Z,101309.69
2023-02-02T21:33:48.119Z,101314.97
2023-02-02T21:36:35.945Z,101299.94
2023-02-02T21:39:16.136Z,101303.84
2023-02-02T21:41:43.827Z,101321.44
2023-02-02T21:44:18.042Z,101296.59
2023-02-02T21:46:47.959Z,101300.13
2023-02-02T21:49:22.578Z,101312.50
2023-02-02T21:51:50.599Z,101304.28
2023-02-02T21:54:24.314Z,101297.28
2023-02-02T21:56:53.229Z,101297.28
2023-02-02T21:59:24.018Z,101302.41
2023-02-02T22:01:52.853Z,101302.25
2023-02-02T22:04:23.316Z,101308.16
2023-02-02T22:06:53.396Z,101304.81
2023-02-02T22:09:23.805Z,101301.38
2023-02-02T22:11:55.825Z,101294.38
2023-02-02T22:14:32.854Z,101290.06
2023-02-02T22:17:01.043Z,101311.16
2023-02-02T22:19:33.052Z,101307.03
2023-02-02T22:22:21.794Z,101319.91
2023-02-02T22:24:58.010Z,101307.19
2023-02-02T22:27:27.596Z,101309.75
2023-02-02T22:30:10.712Z,101304.19
2023-02-02T22:32:38.263Z,101310.56
2023-02-02T22:35:06.184Z,101312.31
2023-02-02T22:37:33.898Z,101307.19
2023-02-02T22:40:01.586Z,101311.34
2023-02-02T22:42:29.169Z,101321.41
2023-02-02T22:44:58.069Z,101310.22
2023-02-02T22:47:25.751Z,101309.84
2023-02-02T22:49:53.361Z,101308.06
2023-02-02T22:52:21.120Z,101295.88
2023-02-02T22:54:48.774Z,101309.41
2023-02-02T22:57:16.436Z,101297.81
2023-02-02T22:59:44.050Z,101294.31
2023-02-02T23:02:13.014Z,101294.03
2023-02-02T23:04:40.657Z,101302.06
2023-02-02T23:07:08.208Z,101300.47
2023-02-02T23:09:35.816Z,101309.66
2023-02-02T23:12:03.649Z,101344.81
2023-02-02T23:14:31.287Z,101301.63
2023-02-02T23:16:58.995Z,101310.00
2023-02-02T23:19:27.899Z,101321.31
2023-02-02T23:21:55.485Z,101313.56
2023-02-02T23:24:23.010Z,101327.00
2023-02-02T23:26:51.010Z,101325.56
2023-02-02T23:29:18.717Z,101325.03
2023-02-02T23:31:46.393Z,101332.66
2023-02-02T23:34:14.060Z,101352.06
2023-02-02T23:36:42.957Z,101351.69
2023-02-02T23:39:10.574Z,101349.59
2023-02-02T23:45:50.581Z,101354.53
2023-02-02T23:48:18.540Z,101344.66
2023-02-02T23:50:46.915Z,101343.06
2023-02-02T23:53:16.112Z,101358.97
2023-02-02T23:55:45.595Z,101343.09
2023-02-02T23:58:13.909Z,101340.25
